createdAt,value
2023-04-25T00:00:18.601Z,7.30
2023-04-25T00:02:45.717Z,6.38
2023-04-25T00:05:13.384Z,8.45
2023-04-25T00:07:40.613Z,7.28
2023-04-25T00:10:08.604Z,5.32
2023-04-25T00:12:35.645Z,6.68
2023-04-25T00:15:02.954Z,9.48
2023-04-25T00:17:30.669Z,5.28
2023-04-25T00:19:59.336Z,6.50
2023-04-25T00:22:26.365Z,6.88
2023-04-25T00:24:54.569Z,4.88
2023-04-25T00:27:21.726Z,6.75
2023-04-25T00:29:48.841Z,4.28
2023-04-25T00:32:15.994Z,5.82
2023-04-25T00:34:43.004Z,5.38
2023-04-25T00:37:10.172Z,5.43
2023-04-25T00:39:37.283Z,4.95
2023-04-25T00:42:04.464Z,6.63
2023-04-25T00:44:33.446Z,5.47
2023-04-25T00:47:02.954Z,4.93
2023-04-25T00:49:30.143Z,6.15
2023-04-25T00:51:57.840Z,4.18
2023-04-25T00:54:25.767Z,5.80
2023-04-25T00:56:54.036Z,4.25
2023-04-25T00:59:22.132Z,3.88
2023-04-25T01:01:49.386Z,3.95
2023-04-25T01:04:16.563Z,4.43
2023-04-25T01:06:43.817Z,3.90
2023-04-25T01:09:11.364Z,4.03
2023-04-25T01:11:38.493Z,4.47
2023-04-25T01:14:05.732Z,9.40
2023-04-25T01:16:34.301Z,3.92
2023-04-25T01:19:01.655Z,4.72
2023-04-25T01:21:30.933Z,4.25
2023-04-25T01:23:58.413Z,3.67
2023-04-25T01:26:26.650Z,3.80
2023-04-25T01:28:54.011Z,3.45
2023-04-25T01:31:21.392Z,4.05
2023-04-25T01:33:49.064Z,4.07
2023-04-25T01:36:16.598Z,6.40
2023-04-25T01:38:45.151Z,3.63
2023-04-25T01:41:12.496Z,3.05
2023-04-25T01:43:39.796Z,2.85
2023-04-25T01:46:07.518Z,2.22
2023-04-25T01:48:34.652Z,3.70
2023-04-25T01:51:01.807Z,5.00
2023-04-25T01:53:29.935Z,2.03
2023-04-25T01:55:57.282Z,3.97
2023-04-25T01:58:26.819Z,1.83
2023-04-25T02:01:06.121Z,2.40
2023-04-25T02:03:41.554Z,3.35
2023-04-25T02:06:15.774Z,1.60
2023-04-25T02:08:45.113Z,3.42
2023-04-25T02:11:13.688Z,4.80
2023-04-25T02:13:47.258Z,2.40
2023-04-25T02:16:33.290Z,2.10
2023-04-25T02:19:02.131Z,4.10
2023-04-25T02:21:31.685Z,2.15
2023-04-25T02:23:59.084Z,1.80
2023-04-25T02:26:29.048Z,2.25
2023-04-25T02:28:57.968Z,1.85
2023-04-25T02:31:25.084Z,1.40
2023-04-25T02:33:53.133Z,2.05
2023-04-25T02:36:20.562Z,4.00
2023-04-25T02:38:49.426Z,2.42
2023-04-25T02:41:16.506Z,2.10
2023-04-25T02:43:43.624Z,1.63
2023-04-25T02:46:11.255Z,3.03
2023-04-25T02:48:38.410Z,1.95
2023-04-25T02:51:05.706Z,1.45
2023-04-25T02:53:32.806Z,1.85
2023-04-25T02:56:00.343Z,1.83
2023-04-25T02:58:27.493Z,2.20
2023-04-25T03:00:55.946Z,3.88
2023-04-25T03:03:23.310Z,1.98
2023-04-25T03:05:52.434Z,1.80
2023-04-25T03:08:24.758Z,2.85
2023-04-25T03:10:53.243Z,2.85
2023-04-25T03:13:20.647Z,3.33
2023-04-25T03:15:47.736Z,2.63
2023-04-25T03:18:14.816Z,2.03
2023-04-25T03:20:42.968Z,3.03
2023-04-25T03:23:10.118Z,2.30
2023-04-25T03:25:39.451Z,2.87
2023-04-25T03:28:06.663Z,3.42
2023-04-25T03:30:34.215Z,3.38
2023-04-25T03:33:01.719Z,3.42
2023-04-25T03:35:28.801Z,2.15
2023-04-25T03:37:55.985Z,5.72
2023-04-25T03:40:28.809Z,2.08
2023-04-25T03:43:28.286Z,2.13
2023-04-25T03:46:01.836Z,4.00
2023-04-25T03:48:29.047Z,2.90
2023-04-25T03:50:56.328Z,5.20
2023-04-25T03:53:23.678Z,2.75
2023-04-25T03:56:09.302Z,3.20
2023-04-25T03:58:38.440Z,3.13
2023-04-25T04:01:08.980Z,2.45
2023-04-25T04:03:39.304Z,2.28
2023-04-25T04:06:08.085Z,5.43
2023-04-25T04:08:41.773Z,3.83
2023-04-25T04:11:10.672Z,4.53
2023-04-25T04:13:37.907Z,3.80
2023-04-25T04:16:06.061Z,2.78
2023-04-25T04:18:34.520Z,5.65
2023-04-25T04:21:02.589Z,5.90
2023-04-25T04:23:32.411Z,4.55
2023-04-25T04:26:00.984Z,2.55
2023-04-25T04:28:30.959Z,3.08
2023-04-25T04:31:06.177Z,3.70
2023-04-25T04:33:33.736Z,4.40
2023-04-25T04:36:05.305Z,3.97
2023-04-25T04:38:33.291Z,4.93
2023-04-25T04:41:04.482Z,3.90
2023-04-25T04:43:57.103Z,5.90
2023-04-25T04:46:32.778Z,3.28
2023-04-25T04:49:38.341Z,3.17
2023-04-25T04:52:43.867Z,3.38
2023-04-25T04:55:44.267Z,2.83
2023-04-25T04:58:31.023Z,5.03
2023-04-25T05:01:14.011Z,3.97
2023-04-25T05:04:04.262Z,2.97
2023-04-25T05:06:54.345Z,4.97
2023-04-25T05:09:42.738Z,3.40
2023-04-25T05:12:28.426Z,3.25
2023-04-25T05:21:07.795Z,3.67
2023-04-25T05:23:57.690Z,3.53
2023-04-25T05:26:43.621Z,4.07
2023-04-25T05:29:33.258Z,3.53
2023-04-25T05:32:12.604Z,4.10
2023-04-25T05:34:39.965Z,4.78
2023-04-25T05:37:13.456Z,3.70
2023-04-25T05:39:52.164Z,4.07
2023-04-25T05:42:45.858Z,5.10
2023-04-25T05:45:31.681Z,4.88
2023-04-25T05:48:04.897Z,6.68
2023-04-25T05:50:57.684Z,3.67
2023-04-25T05:53:48.663Z,7.35
2023-04-25T05:56:16.166Z,7.30
2023-04-25T05:58:43.229Z,4.40
2023-04-25T06:01:13.849Z,5.35
2023-04-25T06:03:44.234Z,6.25
2023-04-25T06:06:13.224Z,7.28
2023-04-25T06:08:41.283Z,5.88
2023-04-25T06:11:08.325Z,5.43
2023-04-25T06:13:35.766Z,6.63
2023-04-25T06:16:03.178Z,7.53
2023-04-25T06:18:30.576Z,6.70
2023-04-25T06:20:57.648Z,4.95
2023-04-25T06:23:25.484Z,6.97
2023-04-25T06:25:58.089Z,9.10
2023-04-25T06:28:26.295Z,6.70
2023-04-25T06:30:53.489Z,7.15
2023-04-25T06:33:22.559Z,5.30
2023-04-25T06:35:50.172Z,7.03
2023-04-25T06:38:20.248Z,5.32
2023-04-25T06:40:51.177Z,6.65
2023-04-25T06:43:19.203Z,7.82
2023-04-25T06:46:06.049Z,6.40
2023-04-25T06:48:39.226Z,6.85
2023-04-25T06:51:06.413Z,5.20
2023-04-25T06:53:35.001Z,5.50
2023-04-25T06:56:04.798Z,5.47
2023-04-25T06:58:55.958Z,5.45
2023-04-25T07:01:34.475Z,6.40
2023-04-25T07:04:05.389Z,8.27
2023-04-25T07:06:34.321Z,6.90
2023-04-25T07:09:01.429Z,8.20
2023-04-25T07:11:29.418Z,8.55
2023-04-25T07:13:57.216Z,8.50
2023-04-25T07:16:24.296Z,5.72
2023-04-25T07:18:51.866Z,6.75
2023-04-25T07:21:19.888Z,6.15
2023-04-25T07:23:48.864Z,8.65
2023-04-25T07:26:20.055Z,6.70
2023-04-25T07:29:07.134Z,5.88
2023-04-25T07:31:34.903Z,7.18
2023-04-25T07:34:02.281Z,8.52
2023-04-25T07:36:29.624Z,7.85
2023-04-25T07:38:56.802Z,6.88
2023-04-25T07:41:24.066Z,10.43
2023-04-25T07:43:51.336Z,7.85
2023-04-25T07:46:20.919Z,7.28
2023-04-25T07:48:48.295Z,7.47
2023-04-25T07:51:15.530Z,6.28
2023-04-25T07:53:43.452Z,6.97
2023-04-25T07:58:43.706Z,8.07
2023-04-25T08:01:13.844Z,5.60
2023-04-25T08:03:50.305Z,6.38
2023-04-25T08:06:25.060Z,6.90
2023-04-25T08:09:18.564Z,7.78
2023-04-25T08:11:45.759Z,7.57
2023-04-25T08:14:15.935Z,7.28
2023-04-25T08:16:44.796Z,4.80
2023-04-25T08:19:12.256Z,9.13
2023-04-25T08:21:39.402Z,8.25
2023-04-25T08:24:11.042Z,6.90
2023-04-25T08:26:40.519Z,8.38
2023-04-25T08:29:09.046Z,5.50
2023-04-25T08:31:39.909Z,7.15
2023-04-25T08:34:08.357Z,6.47
2023-04-25T08:36:40.545Z,4.75
2023-04-25T08:39:26.133Z,7.10
2023-04-25T08:42:16.909Z,5.43
2023-04-25T08:44:47.428Z,6.57
2023-04-25T08:47:14.774Z,8.05
2023-04-25T08:49:48.219Z,6.45
2023-04-25T08:52:23.882Z,5.93
2023-04-25T08:54:53.788Z,4.70
2023-04-25T08:57:22.481Z,6.20
2023-04-25T08:59:51.310Z,5.72
2023-04-25T09:02:21.143Z,5.13
2023-04-25T09:04:51.075Z,5.85
2023-04-25T09:07:22.247Z,6.55
2023-04-25T09:09:49.550Z,6.78
2023-04-25T09:12:21.893Z,4.07
2023-04-25T09:15:09.768Z,7.38
2023-04-25T09:17:59.131Z,4.72
2023-04-25T09:20:33.459Z,4.82
2023-04-25T09:23:07.718Z,4.82
2023-04-25T09:25:40.107Z,5.03
2023-04-25T09:28:09.640Z,4.15
2023-04-25T09:30:37.767Z,4.97
2023-04-25T09:33:12.494Z,3.85
2023-04-25T09:35:46.783Z,7.32
2023-04-25T09:38:22.622Z,5.82
2023-04-25T09:41:13.176Z,4.35
2023-04-25T09:43:48.013Z,5.10
2023-04-25T09:46:16.721Z,6.22
2023-04-25T09:48:51.888Z,4.97
2023-04-25T09:51:28.926Z,3.72
2023-04-25T09:53:59.216Z,4.40
2023-04-25T09:56:49.812Z,6.10
2023-04-25T09:59:17.367Z,3.67
2023-04-25T10:01:44.937Z,7.07
2023-04-25T10:04:28.951Z,4.43
2023-04-25T10:07:08.262Z,3.80
2023-04-25T10:09:40.722Z,6.10
2023-04-25T10:12:09.250Z,4.50
2023-04-25T10:14:36.955Z,4.63
2023-04-25T10:17:04.670Z,8.32
2023-04-25T10:19:31.857Z,5.60
2023-04-25T10:22:09.921Z,6.07
2023-04-25T10:24:38.702Z,4.63
2023-04-25T10:27:06.850Z,4.30
2023-04-25T10:29:34.031Z,5.63
2023-04-25T10:32:01.793Z,5.10
2023-04-25T10:34:43.136Z,5.68
2023-04-25T10:37:12.215Z,5.03
2023-04-25T10:39:41.691Z,5.35
2023-04-25T10:42:09.531Z,6.47
2023-04-25T10:44:40.571Z,4.60
2023-04-25T10:47:09.098Z,6.03
2023-04-25T10:49:43.788Z,5.47
2023-04-25T10:52:16.285Z,4.07
2023-04-25T10:54:48.007Z,4.45
2023-04-25T10:57:45.179Z,6.75
2023-04-25T11:00:14.623Z,6.25
2023-04-25T11:02:59.668Z,7.63
2023-04-25T11:05:55.072Z,5.32
2023-04-25T11:08:49.228Z,6.35
2023-04-25T11:11:17.945Z,6.10
2023-04-25T11:13:45.253Z,4.45
2023-04-25T11:16:13.422Z,6.00
2023-04-25T11:18:45.926Z,4.25
2023-04-25T11:21:13.168Z,3.95
2023-04-25T11:23:40.373Z,4.63
2023-04-25T11:26:08.055Z,5.97
2023-04-25T11:28:35.144Z,8.02
2023-04-25T11:31:05.600Z,4.30
2023-04-25T11:36:00.356Z,4.35
2023-04-25T11:38:29.280Z,5.88
2023-04-25T11:40:56.856Z,4.72
2023-04-25T11:43:24.152Z,4.57
2023-04-25T11:45:54.755Z,5.65
2023-04-25T11:48:26.009Z,4.15
2023-04-25T11:50:55.346Z,4.60
2023-04-25T11:53:22.813Z,4.32
2023-04-25T11:55:51.278Z,5.55
2023-04-25T11:58:20.733Z,3.90
2023-04-25T12:00:50.131Z,5.03
2023-04-25T12:03:19.681Z,5.93
2023-04-25T12:05:47.945Z,5.15
2023-04-25T12:08:16.482Z,4.63
2023-04-25T12:10:46.220Z,7.57
2023-04-25T12:13:27.336Z,4.95
2023-04-25T12:15:57.751Z,5.20
2023-04-25T12:20:53.960Z,4.68
2023-04-25T12:23:29.434Z,5.38
2023-04-25T12:25:57.332Z,5.97
2023-04-25T12:28:26.221Z,3.45
2023-04-25T12:31:06.084Z,6.35
2023-04-25T12:33:35.792Z,3.72
2023-04-25T12:36:12.220Z,6.43
2023-04-25T12:38:41.468Z,4.10
2023-04-25T12:41:09.184Z,4.88
2023-04-25T12:43:36.241Z,5.43
2023-04-25T12:46:03.612Z,5.88
2023-04-25T12:48:30.941Z,3.92
2023-04-25T12:50:58.036Z,5.13
2023-04-25T12:53:25.668Z,6.15
2023-04-25T12:55:52.972Z,5.88
2023-04-25T12:58:21.127Z,5.43
2023-04-25T13:00:48.940Z,4.95
2023-04-25T13:03:16.571Z,4.95
2023-04-25T13:05:44.094Z,5.20
2023-04-25T13:08:11.220Z,7.47
2023-04-25T13:10:40.529Z,7.50
2023-04-25T13:13:07.705Z,8.25
2023-04-25T13:15:34.884Z,7.30
2023-04-25T13:18:02.509Z,7.13
2023-04-25T13:20:29.766Z,6.28
2023-04-25T13:22:56.903Z,6.38
2023-04-25T13:25:24.130Z,7.07
2023-04-25T13:27:51.165Z,4.82
2023-04-25T13:30:18.333Z,7.82
2023-04-25T13:32:45.653Z,5.63
2023-04-25T13:35:17.910Z,11.70
2023-04-25T13:37:44.931Z,5.32
2023-04-25T13:40:12.434Z,7.32
2023-04-25T13:42:39.920Z,5.10
2023-04-25T13:45:08.500Z,5.00
2023-04-25T13:47:35.711Z,4.43
2023-04-25T13:50:04.460Z,4.95
2023-04-25T13:52:31.948Z,3.72
2023-04-25T13:54:59.824Z,5.07
2023-04-25T13:57:27.002Z,4.85
2023-04-25T13:59:54.898Z,6.53
2023-04-25T14:02:22.037Z,4.55
2023-04-25T14:04:49.265Z,5.70
2023-04-25T14:07:20.500Z,3.40
2023-04-25T14:09:47.636Z,8.38
2023-04-25T14:12:14.802Z,5.25
2023-04-25T14:14:41.887Z,3.78
2023-04-25T14:17:09.838Z,5.18
2023-04-25T14:19:38.804Z,7.13
2023-04-25T14:22:05.932Z,6.35
2023-04-25T14:24:33.051Z,6.00
2023-04-25T14:27:00.122Z,4.93
2023-04-25T14:29:27.371Z,4.93
2023-04-25T14:31:55.530Z,6.65
2023-04-25T14:34:22.830Z,3.63
2023-04-25T14:36:50.106Z,3.80
2023-04-25T14:39:17.865Z,3.95
2023-04-25T14:41:45.487Z,4.97
2023-04-25T14:44:12.679Z,3.55
2023-04-25T14:46:40.011Z,5.85
2023-04-25T14:49:07.340Z,4.47
2023-04-25T14:51:34.743Z,3.97
2023-04-25T14:54:02.263Z,5.05
2023-04-25T14:56:29.432Z,5.95
2023-04-25T14:58:56.646Z,4.38
2023-04-25T15:01:24.206Z,6.35
2023-04-25T15:03:52.672Z,6.55
2023-04-25T15:06:20.198Z,6.40
2023-04-25T15:08:47.343Z,9.52
2023-04-25T15:11:14.408Z,7.07
2023-04-25T15:13:41.745Z,7.35
2023-04-25T15:16:08.940Z,4.82
2023-04-25T15:18:36.180Z,3.85
2023-04-25T15:21:03.353Z,4.75
2023-04-25T15:23:31.486Z,4.30
2023-04-25T15:25:58.723Z,4.18
2023-04-25T15:28:25.833Z,4.93
2023-04-25T15:30:52.932Z,4.18
2023-04-25T15:33:19.990Z,3.70
2023-04-25T15:35:47.135Z,6.32
2023-04-25T15:38:14.268Z,6.22
2023-04-25T15:40:41.816Z,4.70
2023-04-25T15:43:15.441Z,4.85
2023-04-25T15:45:42.993Z,4.88
2023-04-25T15:48:10.080Z,4.22
2023-04-25T15:50:37.525Z,4.90
2023-04-25T15:53:06.579Z,5.60
2023-04-25T15:55:35.238Z,5.97
2023-04-25T15:58:02.813Z,6.10
2023-04-25T16:00:30.047Z,6.40
2023-04-25T16:02:57.801Z,7.03
2023-04-25T16:05:25.011Z,6.72
2023-04-25T16:07:53.982Z,6.75
2023-04-25T16:10:21.917Z,9.10
2023-04-25T16:12:50.454Z,7.53
2023-04-25T16:15:18.048Z,8.15
2023-04-25T16:17:45.409Z,9.55
2023-04-25T16:20:13.601Z,10.30
2023-04-25T16:22:42.293Z,8.35
2023-04-25T16:25:10.452Z,8.10
2023-04-25T16:27:39.766Z,9.40
2023-04-25T16:30:08.777Z,10.25
2023-04-25T16:32:36.696Z,9.90
2023-04-25T16:35:04.063Z,9.75
2023-04-25T16:37:31.273Z,7.72
2023-04-25T16:39:58.456Z,7.72
2023-04-25T16:42:25.861Z,9.02
2023-04-25T16:44:52.970Z,8.68
2023-04-25T16:47:20.872Z,6.25
2023-04-25T16:49:48.090Z,7.55
2023-04-25T16:52:16.405Z,6.85
2023-04-25T16:54:43.994Z,6.68
2023-04-25T16:57:11.866Z,12.40
2023-04-25T16:59:39.680Z,9.95
2023-04-25T17:02:10.955Z,8.55
2023-04-25T17:04:38.451Z,7.45
2023-04-25T17:07:05.820Z,9.75
2023-04-25T17:09:33.133Z,12.52
2023-04-25T17:12:00.292Z,10.80
2023-04-25T17:14:27.474Z,13.48
2023-04-25T17:16:54.788Z,14.73
2023-04-25T17:19:22.448Z,11.77
2023-04-25T17:21:49.826Z,12.32
2023-04-25T17:24:18.337Z,12.40
2023-04-25T17:26:48.666Z,11.38
2023-04-25T17:29:16.283Z,13.75
2023-04-25T17:31:44.618Z,15.13
2023-04-25T17:34:16.629Z,12.95
2023-04-25T17:36:48.348Z,19.38
2023-04-25T17:39:17.603Z,17.42
2023-04-25T17:41:45.480Z,16.92
2023-04-25T17:44:12.656Z,18.52
2023-04-25T17:46:39.906Z,20.50
2023-04-25T17:49:07.109Z,20.17
2023-04-25T17:51:34.244Z,20.95
2023-04-25T17:54:01.442Z,16.98
2023-04-25T17:56:29.362Z,18.38
2023-04-25T17:58:56.546Z,18.67
2023-04-25T18:01:23.923Z,15.68
2023-04-25T18:03:51.783Z,17.08
2023-04-25T18:06:19.488Z,13.27
2023-04-25T18:08:47.326Z,15.68
2023-04-25T18:11:14.657Z,20.10
2023-04-25T18:13:41.997Z,15.70
2023-04-25T18:16:09.372Z,14.25
2023-04-25T18:18:37.201Z,16.95
2023-04-25T18:21:07.527Z,8.98
2023-04-25T18:26:02.816Z,12.35
2023-04-25T18:28:30.389Z,10.52
2023-04-25T18:30:58.121Z,14.65
2023-04-25T18:33:25.546Z,13.00
2023-04-25T18:35:58.614Z,12.48
2023-04-25T18:41:06.185Z,12.63
2023-04-25T18:43:45.061Z,13.15
2023-04-25T18:46:12.328Z,12.63
2023-04-25T18:48:39.529Z,14.70
2023-04-25T18:51:06.853Z,10.82
2023-04-25T18:53:34.017Z,15.02
2023-04-25T18:56:01.279Z,13.73
2023-04-25T18:58:28.478Z,12.32
2023-04-25T19:00:55.731Z,13.68
2023-04-25T19:03:23.097Z,10.52
2023-04-25T19:05:50.484Z,11.20
2023-04-25T19:08:18.042Z,11.95
2023-04-25T19:10:45.401Z,12.00
2023-04-25T19:13:14.061Z,11.05
2023-04-25T19:15:41.136Z,10.27
2023-04-25T19:18:08.490Z,13.00
2023-04-25T19:20:36.040Z,10.77
2023-04-25T19:23:04.939Z,13.15
2023-04-25T19:25:32.310Z,13.10
2023-04-25T19:28:00.774Z,11.98
2023-04-25T19:30:29.493Z,13.77
2023-04-25T19:32:59.704Z,10.05
2023-04-25T19:37:58.450Z,12.45
2023-04-25T19:40:27.185Z,9.85
2023-04-25T19:42:54.376Z,12.85
2023-04-25T19:45:22.051Z,15.15
2023-04-25T19:47:49.443Z,12.45
2023-04-25T19:50:16.740Z,14.80
2023-04-25T19:52:44.238Z,14.35
2023-04-25T19:55:11.537Z,16.15
2023-04-25T19:57:38.776Z,13.68
2023-04-25T20:00:13.025Z,15.73
2023-04-25T20:02:41.259Z,13.50
2023-04-25T20:05:09.720Z,13.02
2023-04-25T20:07:37.142Z,15.02
2023-04-25T20:10:07.976Z,13.32
2023-04-25T20:12:37.887Z,11.50
2023-04-25T20:15:05.495Z,11.55
2023-04-25T20:17:32.695Z,13.10
2023-04-25T20:19:59.969Z,12.05
2023-04-25T20:22:28.781Z,14.07
2023-04-25T20:24:55.868Z,12.85
2023-04-25T20:27:22.936Z,13.57
2023-04-25T20:29:50.048Z,14.13
2023-04-25T20:32:17.228Z,13.40
2023-04-25T20:34:44.506Z,11.95
2023-04-25T20:37:12.106Z,13.77
2023-04-25T20:39:39.255Z,13.93
2023-04-25T20:42:06.424Z,14.27
2023-04-25T20:44:33.669Z,15.05
2023-04-25T20:47:00.838Z,14.95
2023-04-25T20:49:27.960Z,14.27
2023-04-25T20:51:55.054Z,11.82
2023-04-25T20:54:22.244Z,16.15
2023-04-25T20:56:49.412Z,10.75
2023-04-25T20:59:17.058Z,11.35
2023-04-25T21:01:44.360Z,11.20
2023-04-25T21:04:11.691Z,13.77
2023-04-25T21:06:38.853Z,16.27
2023-04-25T21:09:07.259Z,17.02
2023-04-25T21:11:34.529Z,15.70
2023-04-25T21:14:01.781Z,14.88
2023-04-25T21:16:34.907Z,15.05
2023-04-25T21:19:02.658Z,13.95
2023-04-25T21:21:29.873Z,13.95
2023-04-25T21:23:57.824Z,12.60
2023-04-25T21:26:25.983Z,13.20
2023-04-25T21:28:54.388Z,14.45
2023-04-25T21:31:22.715Z,11.35
2023-04-25T21:33:49.970Z,9.25
2023-04-25T21:36:17.788Z,14.55
2023-04-25T21:38:44.937Z,14.32
2023-04-25T21:41:12.243Z,13.57
2023-04-25T21:43:39.335Z,10.07
2023-04-25T21:46:22.493Z,14.40
2023-04-25T21:48:50.976Z,12.98
2023-04-25T21:51:18.894Z,13.10
2023-04-25T21:53:46.053Z,12.57
2023-04-25T21:56:13.172Z,17.70
2023-04-25T21:58:40.337Z,10.45
2023-04-25T22:01:07.546Z,15.02
2023-04-25T22:03:34.886Z,13.18
2023-04-25T22:06:02.201Z,13.68
2023-04-25T22:08:29.220Z,10.73
2023-04-25T22:10:56.308Z,10.02
2023-04-25T22:13:23.462Z,16.58
2023-04-25T22:15:50.964Z,13.55
2023-04-25T22:18:19.916Z,10.77
2023-04-25T22:20:47.380Z,9.68
2023-04-25T22:23:14.375Z,15.63
2023-04-25T22:25:42.213Z,13.48
2023-04-25T22:28:09.352Z,12.80
2023-04-25T22:30:37.328Z,14.68
2023-04-25T22:33:04.428Z,10.57
2023-04-25T22:35:31.780Z,14.27
2023-04-25T22:37:59.119Z,16.98
2023-04-25T22:40:26.142Z,13.63
2023-04-25T22:42:53.276Z,13.45
2023-04-25T22:45:20.424Z,14.85
2023-04-25T22:47:47.579Z,15.15
2023-04-25T22:50:17.044Z,12.80
2023-04-25T22:52:44.319Z,17.57
2023-04-25T22:55:13.238Z,14.35
2023-04-25T22:57:40.937Z,15.15
2023-04-25T23:00:16.223Z,15.02
2023-04-25T23:02:46.193Z,14.45
2023-04-25T23:07:42.437Z,12.30
2023-04-25T23:10:10.072Z,15.07
2023-04-25T23:12:37.442Z,15.73
2023-04-25T23:15:05.479Z,14.60
2023-04-25T23:17:32.837Z,15.88
2023-04-25T23:20:00.025Z,15.35
2023-04-25T23:22:27.058Z,20.35
2023-04-25T23:24:54.127Z,12.32
2023-04-25T23:27:21.207Z,12.57
2023-04-25T23:29:58.156Z,16.40
2023-04-25T23:32:26.511Z,15.20
2023-04-25T23:34:53.766Z,16.23
2023-04-25T23:37:20.912Z,14.48
2023-04-25T23:39:52.170Z,14.38
2023-04-25T23:42:19.464Z,13.25
2023-04-25T23:44:46.543Z,8.75
2023-04-25T23:47:14.403Z,13.65
2023-04-25T23:49:41.802Z,11.40
2023-04-25T23:52:08.849Z,13.90
2023-04-25T23:54:36.180Z,13.93
2023-04-25T23:57:06.363Z,10.88
2023-04-25T23:59:33.651Z,11.98
